This is the latest recevied weather packets stored in our database for station/object VE4GLS. If no packets are shown the sender has not sent any weather packets the latest 1 day(s).
| Time | Temp. | Humidity | Pressure | Rain* | Wind** | Luminosity | Snow |
|---|---|---|---|---|---|---|---|
| 1778081555 | 3.89° C | 64% | 1014.1 hPa | 0 mm | - | - | - |
| 1778079574 | 3.33° C | 70% | 1014.3 hPa | 0 mm | - | - | - |
| 1778078975 | 3.33° C | 71% | 1014.4 hPa | 0 mm | - | - | - |
| 1778077955 | 2.78° C | 74% | 1014.4 hPa | 0 mm | - | - | - |
| 1778077774 | 2.78° C | 74% | 1014.4 hPa | 0 mm | - | - | - |
| 1778075375 | 1.67° C | 79% | 1014.4 hPa | 0 mm | - | - | - |
| 1778074775 | 1.11° C | 80% | 1014.5 hPa | 0 mm | - | - | - |
| 1778072556 | 0.56° C | 81% | 1014.5 hPa | 0 mm | - | - | - |
| 1778072374 | 0.56° C | 81% | 1014.5 hPa | 0 mm | - | - | - |
| 1778071774 | 0.56° C | 82% | 1014.4 hPa | 0 mm | - | - | - |
| 1778069374 | -0.56° C | 84% | 1014.2 hPa | 0 mm | - | - | - |
| 1778068956 | -0.56° C | 84% | 1014.2 hPa | 0 mm | - | - | - |
| 1778067155 | -0.56° C | 84% | 1014.1 hPa | 0 mm | - | - | - |
| 1778066975 | -0.56° C | 84% | 1014.1 hPa | 0 mm | - | - | - |
| 1778066375 | -0.56° C | 83% | 1014.1 hPa | 0 mm | - | - | - |
| 1778066255 | -0.56° C | 83% | 1014 hPa | 0 mm | - | - | - |
| 1778064574 | -0.56° C | 83% | 1014 hPa | 0 mm | - | - | - |
| 1778064454 | -0.56° C | 83% | 1014 hPa | 0 mm | - | - | - |
| 1778063974 | -0.56° C | 82% | 1014 hPa | 0 mm | - | - | - |
| 1778063556 | -0.56° C | 82% | 1014.1 hPa | 0 mm | - | - | - |
| 1778060975 | -0.56° C | 81% | 1014 hPa | 0 mm | - | - | - |
| 1778060375 | -0.56° C | 81% | 1014 hPa | 0 mm | - | - | - |
| 1778059955 | -0.56° C | 81% | 1014 hPa | 0 mm | - | - | - |
| 1778059172 | -1.11° C | 82% | 1013.9 hPa | 0 mm | - | - | - |
| 1778058572 | -1.11° C | 81% | 1013.8 hPa | 0 mm | - | - | - |
* Rain latest hour (hover to see other rain measurements)
** Current wind speed in m/s (hover to see current wind gust speed)